sensor_id;sensor_type;location;lat;lon;timestamp;pressure;altitude;pressure_sealevel;temperature;humidity
27425;BME280;15244;49.088;11.886;2023-04-24T00:00:05;94828.50;;;16.18;49.85
27425;BME280;15244;49.088;11.886;2023-04-24T00:05:36;94826.22;;;16.16;49.97
27425;BME280;15244;49.088;11.886;2023-04-24T00:10:51;94820.38;;;16.14;50.05
27425;BME280;15244;49.088;11.886;2023-04-24T00:16:20;94822.38;;;16.14;49.93
27425;BME280;15244;49.088;11.886;2023-04-24T00:21:35;94819.63;;;16.14;50.05
27425;BME280;15244;49.088;11.886;2023-04-24T00:27:04;94811.91;;;16.09;50.02
27425;BME280;15244;49.088;11.886;2023-04-24T00:32:19;94826.88;;;16.08;50.14
27425;BME280;15244;49.088;11.886;2023-04-24T00:37:48;94820.06;;;15.99;50.23
27425;BME280;15244;49.088;11.886;2023-04-24T00:43:03;94817.53;;;15.92;50.41
27425;BME280;15244;49.088;11.886;2023-04-24T00:48:32;94824.66;;;15.90;50.78
27425;BME280;15244;49.088;11.886;2023-04-24T00:53:47;94817.66;;;15.89;50.72
27425;BME280;15244;49.088;11.886;2023-04-24T00:59:16;94819.63;;;15.88;50.76
27425;BME280;15244;49.088;11.886;2023-04-24T01:04:32;94814.13;;;15.88;51.17
27425;BME280;15244;49.088;11.886;2023-04-24T01:10:01;94813.38;;;15.88;51.01
27425;BME280;15244;49.088;11.886;2023-04-24T01:15:16;94823.91;;;15.89;51.06
27425;BME280;15244;49.088;11.886;2023-04-24T01:20:45;94820.41;;;15.89;51.02
27425;BME280;15244;49.088;11.886;2023-04-24T01:26:01;94818.53;;;15.86;50.93
27425;BME280;15244;49.088;11.886;2023-04-24T01:31:30;94820.59;;;15.81;51.03
27425;BME280;15244;49.088;11.886;2023-04-24T01:36:45;94823.47;;;15.78;51.27
27425;BME280;15244;49.088;11.886;2023-04-24T01:42:14;94805.88;;;15.75;51.26
27425;BME280;15244;49.088;11.886;2023-04-24T01:47:30;94809.41;;;15.76;51.52
27425;BME280;15244;49.088;11.886;2023-04-24T01:52:59;94813.03;;;15.73;51.31
27425;BME280;15244;49.088;11.886;2023-04-24T01:58:21;94817.44;;;15.70;51.21
27425;BME280;15244;49.088;11.886;2023-04-24T02:03:51;94811.34;;;15.63;51.52
27425;BME280;15244;49.088;11.886;2023-04-24T02:09:06;94805.53;;;15.60;51.57
27425;BME280;15244;49.088;11.886;2023-04-24T02:14:35;94800.13;;;15.57;51.76
27425;BME280;15244;49.088;11.886;2023-04-24T02:19:50;94788.91;;;15.51;51.73
27425;BME280;15244;49.088;11.886;2023-04-24T02:25:19;94790.56;;;15.49;52.03
27425;BME280;15244;49.088;11.886;2023-04-24T02:30:34;94788.56;;;15.49;52.18
27425;BME280;15244;49.088;11.886;2023-04-24T02:36:03;94785.81;;;15.49;52.06
27425;BME280;15244;49.088;11.886;2023-04-24T02:41:18;94785.41;;;15.51;52.29
27425;BME280;15244;49.088;11.886;2023-04-24T02:46:47;94766.94;;;15.51;52.42
27425;BME280;15244;49.088;11.886;2023-04-24T02:52:02;94768.03;;;15.54;52.40
27425;BME280;15244;49.088;11.886;2023-04-24T02:57:31;94766.03;;;15.54;52.06
27425;BME280;15244;49.088;11.886;2023-04-24T03:03:00;94776.28;;;15.54;51.96
27425;BME280;15244;49.088;11.886;2023-04-24T03:08:15;94770.78;;;15.54;52.22
27425;BME280;15244;49.088;11.886;2023-04-24T03:13:44;94767.38;;;15.50;51.98
27425;BME280;15244;49.088;11.886;2023-04-24T03:18:59;94764.50;;;15.41;51.94
27425;BME280;15244;49.088;11.886;2023-04-24T03:24:39;94760.66;;;15.25;51.98
27425;BME280;15244;49.088;11.886;2023-04-24T03:29:55;94766.13;;;15.12;52.13
27425;BME280;15244;49.088;11.886;2023-04-24T03:35:30;94770.13;;;14.95;52.51
27425;BME280;15244;49.088;11.886;2023-04-24T03:40:46;94767.59;;;14.88;52.55
27425;BME280;15244;49.088;11.886;2023-04-24T03:46:27;94781.84;;;14.83;52.56
27425;BME280;15244;49.088;11.886;2023-04-24T03:51:43;94784.78;;;14.76;52.09
27425;BME280;15244;49.088;11.886;2023-04-24T03:57:12;94793.72;;;14.63;52.60
27425;BME280;15244;49.088;11.886;2023-04-24T04:02:49;94798.34;;;14.50;52.88
27425;BME280;15244;49.088;11.886;2023-04-24T04:08:04;94782.53;;;14.41;53.15
27425;BME280;15244;49.088;11.886;2023-04-24T04:13:33;94787.31;;;14.37;53.61
27425;BME280;15244;49.088;11.886;2023-04-24T04:18:50;94787.31;;;14.37;53.53
27425;BME280;15244;49.088;11.886;2023-04-24T04:24:19;94771.97;;;14.40;53.61
27425;BME280;15244;49.088;11.886;2023-04-24T04:29:35;94779.78;;;14.41;53.51
27425;BME280;15244;49.088;11.886;2023-04-24T04:35:04;94779.19;;;14.34;53.50
27425;BME280;15244;49.088;11.886;2023-04-24T04:40:19;94781.59;;;14.31;53.66
27425;BME280;15244;49.088;11.886;2023-04-24T04:45:48;94769.53;;;14.29;53.62
27425;BME280;15244;49.088;11.886;2023-04-24T04:51:22;94784.84;;;14.26;53.83
27425;BME280;15244;49.088;11.886;2023-04-24T04:56:51;94787.94;;;14.28;53.79
27425;BME280;15244;49.088;11.886;2023-04-24T05:02:07;94795.38;;;14.28;54.17
27425;BME280;15244;49.088;11.886;2023-04-24T05:07:36;94798.91;;;14.28;53.65
27425;BME280;15244;49.088;11.886;2023-04-24T05:12:51;94802.84;;;14.27;53.73
27425;BME280;15244;49.088;11.886;2023-04-24T05:18:20;94806.19;;;14.19;54.21
27425;BME280;15244;49.088;11.886;2023-04-24T05:23:35;94810.47;;;14.20;54.01
27425;BME280;15244;49.088;11.886;2023-04-24T05:29:18;94822.63;;;14.19;53.96
27425;BME280;15244;49.088;11.886;2023-04-24T05:34:34;94817.16;;;14.19;54.01
27425;BME280;15244;49.088;11.886;2023-04-24T05:40:03;94820.91;;;14.25;54.01
27425;BME280;15244;49.088;11.886;2023-04-24T05:45:20;94824.53;;;14.22;54.14
27425;BME280;15244;49.088;11.886;2023-04-24T05:50:49;94820.31;;;14.17;54.08
27425;BME280;15244;49.088;11.886;2023-04-24T05:56:04;94825.28;;;14.06;54.48
27425;BME280;15244;49.088;11.886;2023-04-24T06:01:33;94829.72;;;14.00;54.58
27425;BME280;15244;49.088;11.886;2023-04-24T06:06:52;94828.03;;;14.06;54.66
27425;BME280;15244;49.088;11.886;2023-04-24T06:12:23;94837.03;;;14.06;54.57
27425;BME280;15244;49.088;11.886;2023-04-24T06:17:43;94842.16;;;14.04;54.71
27425;BME280;15244;49.088;11.886;2023-04-24T06:23:12;94838.75;;;14.00;54.90
27425;BME280;15244;49.088;11.886;2023-04-24T06:28:27;94841.41;;;14.04;54.55
27425;BME280;15244;49.088;11.886;2023-04-24T06:33:57;94837.78;;;13.91;54.71
27425;BME280;15244;49.088;11.886;2023-04-24T06:39:12;94849.94;;;13.90;54.87
27425;BME280;15244;49.088;11.886;2023-04-24T06:44:41;94841.19;;;13.95;54.88
27425;BME280;15244;49.088;11.886;2023-04-24T06:49:56;94839.56;;;13.97;54.64
27425;BME280;15244;49.088;11.886;2023-04-24T06:55:25;94835.31;;;13.96;55.05
27425;BME280;15244;49.088;11.886;2023-04-24T07:00:40;94832.16;;;13.98;54.98
27425;BME280;15244;49.088;11.886;2023-04-24T07:06:09;94838.13;;;14.09;55.30
27425;BME280;15244;49.088;11.886;2023-04-24T07:11:25;94837.63;;;14.14;54.91
27425;BME280;15244;49.088;11.886;2023-04-24T07:16:54;94839.16;;;14.15;54.96
27425;BME280;15244;49.088;11.886;2023-04-24T07:22:09;94836.09;;;14.13;54.78
27425;BME280;15244;49.088;11.886;2023-04-24T07:27:38;94835.38;;;14.25;54.93
27425;BME280;15244;49.088;11.886;2023-04-24T07:32:53;94844.31;;;14.29;54.87
27425;BME280;15244;49.088;11.886;2023-04-24T07:38:22;94834.03;;;14.34;54.83
27425;BME280;15244;49.088;11.886;2023-04-24T07:43:37;94837.44;;;14.38;54.83
27425;BME280;15244;49.088;11.886;2023-04-24T07:49:06;94847.31;;;14.35;54.70
27425;BME280;15244;49.088;11.886;2023-04-24T07:54:22;94854.75;;;14.35;54.92
27425;BME280;15244;49.088;11.886;2023-04-24T07:59:51;94848.94;;;14.32;54.69
27425;BME280;15244;49.088;11.886;2023-04-24T08:05:11;94854.41;;;14.32;54.63
27425;BME280;15244;49.088;11.886;2023-04-24T08:10:40;94874.56;;;14.42;54.65
27425;BME280;15244;49.088;11.886;2023-04-24T08:15:56;94883.91;;;14.28;54.20
27425;BME280;15244;49.088;11.886;2023-04-24T08:21:25;94892.44;;;14.14;53.89
27425;BME280;15244;49.088;11.886;2023-04-24T08:26:42;94889.34;;;14.12;53.24
27425;BME280;15244;49.088;11.886;2023-04-24T08:32:15;94892.03;;;14.16;52.25
27425;BME280;15244;49.088;11.886;2023-04-24T08:37:30;94895.78;;;14.22;52.09
27425;BME280;15244;49.088;11.886;2023-04-24T08:42:59;94899.56;;;14.28;51.68
27425;BME280;15244;49.088;11.886;2023-04-24T08:48:14;94903.75;;;14.32;51.58
27425;BME280;15244;49.088;11.886;2023-04-24T08:53:46;94914.31;;;14.34;51.43
27425;BME280;15244;49.088;11.886;2023-04-24T08:59:08;94913.56;;;14.34;51.15
27425;BME280;15244;49.088;11.886;2023-04-24T09:04:37;94918.34;;;14.29;51.13
27425;BME280;15244;49.088;11.886;2023-04-24T09:09:52;94920.06;;;14.23;51.09
27425;BME280;15244;49.088;11.886;2023-04-24T09:15:21;94922.53;;;14.34;51.08
27425;BME280;15244;49.088;11.886;2023-04-24T09:20:59;94906.69;;;14.42;50.85
27425;BME280;15244;49.088;11.886;2023-04-24T09:26:34;94904.81;;;14.55;50.71
27425;BME280;15244;49.088;11.886;2023-04-24T09:31:49;94914.75;;;14.65;50.55
27425;BME280;15244;49.088;11.886;2023-04-24T09:37:28;94913.84;;;14.72;50.39
27425;BME280;15244;49.088;11.886;2023-04-24T09:42:54;94927.44;;;14.76;50.24
27425;BME280;15244;49.088;11.886;2023-04-24T09:48:34;94932.28;;;14.71;50.14
27425;BME280;15244;49.088;11.886;2023-04-24T09:53:52;94938.94;;;14.70;49.69
27425;BME280;15244;49.088;11.886;2023-04-24T09:59:21;94967.22;;;14.51;49.46
27425;BME280;15244;49.088;11.886;2023-04-24T10:04:55;94954.94;;;14.39;49.44
27425;BME280;15244;49.088;11.886;2023-04-24T10:10:15;94966.16;;;14.28;49.23
27425;BME280;15244;49.088;11.886;2023-04-24T10:15:45;94956.53;;;14.20;48.33
27425;BME280;15244;49.088;11.886;2023-04-24T10:21:02;94952.59;;;14.21;47.93
27425;BME280;15244;49.088;11.886;2023-04-24T10:26:31;94954.41;;;14.28;48.04
27425;BME280;15244;49.088;11.886;2023-04-24T10:31:46;94965.28;;;14.31;47.73
27425;BME280;15244;49.088;11.886;2023-04-24T10:37:16;94950.06;;;14.47;47.64
27425;BME280;15244;49.088;11.886;2023-04-24T10:42:31;94951.38;;;14.59;47.49
27425;BME280;15244;49.088;11.886;2023-04-24T10:48:04;94944.94;;;14.65;46.89
27425;BME280;15244;49.088;11.886;2023-04-24T10:53:31;94948.22;;;14.77;46.75
27425;BME280;15244;49.088;11.886;2023-04-24T10:59:07;94953.69;;;14.77;46.09
27425;BME280;15244;49.088;11.886;2023-04-24T11:04:36;94960.97;;;14.83;45.85
27425;BME280;15244;49.088;11.886;2023-04-24T11:09:58;94959.44;;;14.82;45.94
27425;BME280;15244;49.088;11.886;2023-04-24T11:15:27;94982.66;;;14.78;45.77
27425;BME280;15244;49.088;11.886;2023-04-24T11:20:43;94994.28;;;14.49;46.17
27425;BME280;15244;49.088;11.886;2023-04-24T11:26:17;94976.16;;;14.35;46.31
27425;BME280;15244;49.088;11.886;2023-04-24T11:31:36;94989.09;;;14.18;46.75
27425;BME280;15244;49.088;11.886;2023-04-24T11:37:10;94983.50;;;14.05;46.98
27425;BME280;15244;49.088;11.886;2023-04-24T11:42:25;94980.75;;;14.05;47.06
27425;BME280;15244;49.088;11.886;2023-04-24T11:47:54;94963.72;;;14.14;47.24
27425;BME280;15244;49.088;11.886;2023-04-24T11:53:09;94967.78;;;14.26;47.52
27425;BME280;15244;49.088;11.886;2023-04-24T11:58:38;94974.84;;;14.43;47.08
27425;BME280;15244;49.088;11.886;2023-04-24T12:04:07;94967.97;;;14.51;46.55
27425;BME280;15244;49.088;11.886;2023-04-24T12:09:22;94976.75;;;14.63;46.04
27425;BME280;15244;49.088;11.886;2023-04-24T12:14:57;94960.91;;;14.87;45.87
27425;BME280;15244;49.088;11.886;2023-04-24T12:20:13;94955.13;;;14.98;45.36
27425;BME280;15244;49.088;11.886;2023-04-24T12:25:43;94975.88;;;15.15;45.15
27425;BME280;15244;49.088;11.886;2023-04-24T12:31:00;94963.44;;;15.27;44.72
27425;BME280;15244;49.088;11.886;2023-04-24T12:36:29;94973.44;;;15.33;44.15
27425;BME280;15244;49.088;11.886;2023-04-24T12:41:54;94970.94;;;15.39;42.92
27425;BME280;15244;49.088;11.886;2023-04-24T12:47:24;94982.19;;;15.28;42.24
27425;BME280;15244;49.088;11.886;2023-04-24T12:52:39;95002.47;;;15.18;40.30
27425;BME280;15244;49.088;11.886;2023-04-24T12:58:08;95016.97;;;15.02;41.32
27425;BME280;15244;49.088;11.886;2023-04-24T13:03:23;95038.16;;;14.85;41.44
27425;BME280;15244;49.088;11.886;2023-04-24T13:08:52;95031.03;;;14.71;41.49
27425;BME280;15244;49.088;11.886;2023-04-24T13:14:07;95058.97;;;14.66;41.59
27425;BME280;15244;49.088;11.886;2023-04-24T13:19:40;95034.88;;;14.58;41.65
27425;BME280;15244;49.088;11.886;2023-04-24T13:24:55;95025.31;;;14.46;41.35
27425;BME280;15244;49.088;11.886;2023-04-24T13:30:23;95022.00;;;14.55;41.24
27425;BME280;15244;49.088;11.886;2023-04-24T13:35:39;95011.03;;;14.71;41.70
27425;BME280;15244;49.088;11.886;2023-04-24T13:41:07;95016.97;;;14.69;41.30
27425;BME280;15244;49.088;11.886;2023-04-24T13:46:23;95027.78;;;14.77;41.05
27425;BME280;15244;49.088;11.886;2023-04-24T13:51:53;95021.94;;;14.74;41.15
27425;BME280;15244;49.088;11.886;2023-04-24T13:57:09;95047.72;;;14.61;41.08
27425;BME280;15244;49.088;11.886;2023-04-24T14:02:37;95053.31;;;14.37;41.50
27425;BME280;15244;49.088;11.886;2023-04-24T14:07:53;95059.88;;;14.23;41.84
27425;BME280;15244;49.088;11.886;2023-04-24T14:13:22;95060.69;;;14.20;42.12
27425;BME280;15244;49.088;11.886;2023-04-24T14:18:38;95038.34;;;14.22;42.28
27425;BME280;15244;49.088;11.886;2023-04-24T14:24:07;95063.53;;;14.17;42.37
27425;BME280;15244;49.088;11.886;2023-04-24T14:29:23;95044.13;;;14.07;41.98
27425;BME280;15244;49.088;11.886;2023-04-24T14:34:51;95053.31;;;13.97;41.72
27425;BME280;15244;49.088;11.886;2023-04-24T14:40:07;95059.25;;;13.96;41.77
27425;BME280;15244;49.088;11.886;2023-04-24T14:45:56;95046.03;;;13.91;41.75
27425;BME280;15244;49.088;11.886;2023-04-24T14:51:12;95040.28;;;13.85;41.41
27425;BME280;15244;49.088;11.886;2023-04-24T14:56:41;95051.03;;;13.96;41.90
27425;BME280;15244;49.088;11.886;2023-04-24T15:01:57;95083.63;;;13.90;41.42
27425;BME280;15244;49.088;11.886;2023-04-24T15:07:30;95048.06;;;13.86;41.62
27425;BME280;15244;49.088;11.886;2023-04-24T15:12:46;95045.28;;;13.90;41.80
27425;BME280;15244;49.088;11.886;2023-04-24T15:18:14;95047.53;;;13.95;42.08
27425;BME280;15244;49.088;11.886;2023-04-24T15:23:30;95045.91;;;13.98;42.01
27425;BME280;15244;49.088;11.886;2023-04-24T15:28:58;95059.25;;;14.16;41.79
27425;BME280;15244;49.088;11.886;2023-04-24T15:34:14;95058.38;;;14.39;41.37
27425;BME280;15244;49.088;11.886;2023-04-24T15:39:44;95056.47;;;14.56;40.97
27425;BME280;15244;49.088;11.886;2023-04-24T15:45:00;95077.84;;;14.64;40.95
27425;BME280;15244;49.088;11.886;2023-04-24T15:50:28;95066.88;;;14.64;40.34
27425;BME280;15244;49.088;11.886;2023-04-24T15:55:44;95075.94;;;14.61;40.49
27425;BME280;15244;49.088;11.886;2023-04-24T16:01:12;95094.72;;;14.63;40.70
27425;BME280;15244;49.088;11.886;2023-04-24T16:06:28;95077.06;;;14.44;40.44
27425;BME280;15244;49.088;11.886;2023-04-24T16:11:56;95094.78;;;14.39;40.35
27425;BME280;15244;49.088;11.886;2023-04-24T16:17:12;95113.28;;;14.15;40.90
27425;BME280;15244;49.088;11.886;2023-04-24T16:22:41;95101.41;;;14.02;41.31
27425;BME280;15244;49.088;11.886;2023-04-24T16:27:56;95099.00;;;14.04;41.49
27425;BME280;15244;49.088;11.886;2023-04-24T16:33:25;95103.16;;;14.12;41.44
27425;BME280;15244;49.088;11.886;2023-04-24T16:38:40;95113.84;;;14.26;41.23
27425;BME280;15244;49.088;11.886;2023-04-24T16:44:10;95118.75;;;14.15;40.70
27425;BME280;15244;49.088;11.886;2023-04-24T16:49:25;95106.81;;;14.05;40.82
27425;BME280;15244;49.088;11.886;2023-04-24T16:54:53;95101.13;;;13.96;40.93
27425;BME280;15244;49.088;11.886;2023-04-24T17:00:09;95112.81;;;14.00;41.00
27425;BME280;15244;49.088;11.886;2023-04-24T17:05:37;95114.75;;;14.00;40.98
27425;BME280;15244;49.088;11.886;2023-04-24T17:10:53;95116.16;;;13.88;41.04
27425;BME280;15244;49.088;11.886;2023-04-24T17:16:21;95099.19;;;13.73;41.13
27425;BME280;15244;49.088;11.886;2023-04-24T17:21:37;95100.16;;;13.63;40.59
27425;BME280;15244;49.088;11.886;2023-04-24T17:27:05;95110.19;;;13.50;40.73
27425;BME280;15244;49.088;11.886;2023-04-24T17:32:22;95122.66;;;13.51;40.94
27425;BME280;15244;49.088;11.886;2023-04-24T17:37:50;95116.31;;;13.57;40.83
27425;BME280;15244;49.088;11.886;2023-04-24T17:43:06;95131.91;;;13.60;41.04
27425;BME280;15244;49.088;11.886;2023-04-24T17:48:38;95130.00;;;13.57;41.26
27425;BME280;15244;49.088;11.886;2023-04-24T17:53:56;95125.34;;;13.54;41.37
27425;BME280;15244;49.088;11.886;2023-04-24T17:59:24;95129.16;;;13.60;41.39
27425;BME280;15244;49.088;11.886;2023-04-24T18:04:53;95127.13;;;13.64;41.50
27425;BME280;15244;49.088;11.886;2023-04-24T18:10:09;95137.56;;;13.73;41.42
27425;BME280;15244;49.088;11.886;2023-04-24T18:15:37;95139.44;;;13.76;41.50
27425;BME280;15244;49.088;11.886;2023-04-24T18:20:57;95144.44;;;13.81;41.53
27425;BME280;15244;49.088;11.886;2023-04-24T18:26:26;95149.44;;;13.86;41.54
27425;BME280;15244;49.088;11.886;2023-04-24T18:31:41;95158.09;;;13.85;41.49
27425;BME280;15244;49.088;11.886;2023-04-24T18:37:09;95168.03;;;13.75;41.40
27425;BME280;15244;49.088;11.886;2023-04-24T18:42:25;95175.66;;;13.64;41.25
27425;BME280;15244;49.088;11.886;2023-04-24T18:47:53;95173.38;;;13.59;41.53
27425;BME280;15244;49.088;11.886;2023-04-24T18:53:09;95177.34;;;13.58;41.72
27425;BME280;15244;49.088;11.886;2023-04-24T18:58:38;95183.94;;;13.60;41.58
27425;BME280;15244;49.088;11.886;2023-04-24T19:03:58;95179.22;;;13.61;41.80
27425;BME280;15244;49.088;11.886;2023-04-24T19:09:26;95189.34;;;13.64;41.79
27425;BME280;15244;49.088;11.886;2023-04-24T19:14:42;95195.25;;;13.62;41.72
27425;BME280;15244;49.088;11.886;2023-04-24T19:20:11;95199.13;;;13.65;41.81
27425;BME280;15244;49.088;11.886;2023-04-24T19:25:27;95226.94;;;13.63;42.08
27425;BME280;15244;49.088;11.886;2023-04-24T19:30:55;95231.34;;;13.57;42.50
27425;BME280;15244;49.088;11.886;2023-04-24T19:36:12;95238.09;;;13.49;42.88
27425;BME280;15244;49.088;11.886;2023-04-24T19:41:40;95231.19;;;13.41;42.97
27425;BME280;15244;49.088;11.886;2023-04-24T19:46:56;95216.88;;;13.30;43.42
27425;BME280;15244;49.088;11.886;2023-04-24T19:52:25;95218.41;;;13.31;43.76
27425;BME280;15244;49.088;11.886;2023-04-24T19:57:39;95215.03;;;13.19;43.79
27425;BME280;15244;49.088;11.886;2023-04-24T20:03:08;95211.94;;;13.17;43.81
27425;BME280;15244;49.088;11.886;2023-04-24T20:08:40;95219.38;;;13.17;44.24
27425;BME280;15244;49.088;11.886;2023-04-24T20:14:09;95216.56;;;13.20;44.25
27425;BME280;15244;49.088;11.886;2023-04-24T20:19:24;95215.81;;;13.20;44.26
27425;BME280;15244;49.088;11.886;2023-04-24T20:24:52;95217.34;;;13.21;44.22
27425;BME280;15244;49.088;11.886;2023-04-24T20:30:08;95228.72;;;13.19;44.34
27425;BME280;15244;49.088;11.886;2023-04-24T20:35:36;95226.41;;;13.18;44.37
27425;BME280;15244;49.088;11.886;2023-04-24T20:40:52;95218.66;;;13.13;44.49
27425;BME280;15244;49.088;11.886;2023-04-24T20:46:21;95217.91;;;13.09;44.24
27425;BME280;15244;49.088;11.886;2023-04-24T20:51:36;95223.44;;;13.05;44.36
27425;BME280;15244;49.088;11.886;2023-04-24T20:57:04;95214.16;;;12.99;44.59
27425;BME280;15244;49.088;11.886;2023-04-24T21:02:35;95221.63;;;12.95;44.55
27425;BME280;15244;49.088;11.886;2023-04-24T21:08:03;95218.56;;;12.89;44.72
27425;BME280;15244;49.088;11.886;2023-04-24T21:13:18;95212.72;;;12.87;44.85
27425;BME280;15244;49.088;11.886;2023-04-24T21:18:47;95213.59;;;12.80;44.70
27425;BME280;15244;49.088;11.886;2023-04-24T21:24:03;95216.31;;;12.80;45.04
27425;BME280;15244;49.088;11.886;2023-04-24T21:29:32;95201.50;;;12.78;44.98
27425;BME280;15244;49.088;11.886;2023-04-24T21:34:46;95208.56;;;12.75;45.60
27425;BME280;15244;49.088;11.886;2023-04-24T21:40:15;95206.59;;;12.76;45.23
27425;BME280;15244;49.088;11.886;2023-04-24T21:45:31;95203.16;;;12.72;45.42
27425;BME280;15244;49.088;11.886;2023-04-24T21:50:59;95195.78;;;12.69;45.43
27425;BME280;15244;49.088;11.886;2023-04-24T21:56:15;95188.75;;;12.68;45.33
27425;BME280;15244;49.088;11.886;2023-04-24T22:01:43;95192.66;;;12.67;45.42
27425;BME280;15244;49.088;11.886;2023-04-24T22:06:59;95180.16;;;12.66;45.41
27425;BME280;15244;49.088;11.886;2023-04-24T22:12:27;95179.41;;;12.65;45.70
27425;BME280;15244;49.088;11.886;2023-04-24T22:17:43;95174.75;;;12.62;45.66
27425;BME280;15244;49.088;11.886;2023-04-24T22:23:12;95176.72;;;12.62;45.58
27425;BME280;15244;49.088;11.886;2023-04-24T22:28:28;95175.59;;;12.55;46.03
27425;BME280;15244;49.088;11.886;2023-04-24T22:33:56;95163.94;;;12.51;46.19
27425;BME280;15244;49.088;11.886;2023-04-24T22:39:11;95164.78;;;12.48;46.30
27425;BME280;15244;49.088;11.886;2023-04-24T22:44:41;95162.06;;;12.45;46.11
27425;BME280;15244;49.088;11.886;2023-04-24T22:49:55;95165.56;;;12.45;46.54
27425;BME280;15244;49.088;11.886;2023-04-24T22:55:25;95170.28;;;12.45;46.28
27425;BME280;15244;49.088;11.886;2023-04-24T23:00:47;95157.44;;;12.42;46.30
27425;BME280;15244;49.088;11.886;2023-04-24T23:06:16;95155.88;;;12.41;46.01
27425;BME280;15244;49.088;11.886;2023-04-24T23:11:31;95145.75;;;12.38;46.21
27425;BME280;15244;49.088;11.886;2023-04-24T23:17:00;95149.31;;;12.34;46.76
27425;BME280;15244;49.088;11.886;2023-04-24T23:22:15;95146.56;;;12.34;46.90
27425;BME280;15244;49.088;11.886;2023-04-24T23:27:44;95142.31;;;12.33;46.68
27425;BME280;15244;49.088;11.886;2023-04-24T23:32:59;95134.13;;;12.30;46.68
27425;BME280;15244;49.088;11.886;2023-04-24T23:38:28;95130.63;;;12.29;46.48
27425;BME280;15244;49.088;11.886;2023-04-24T23:43:56;95128.28;;;12.28;46.50
27425;BME280;15244;49.088;11.886;2023-04-24T23:49:25;95122.81;;;12.28;46.39
27425;BME280;15244;49.088;11.886;2023-04-24T23:54:40;95126.34;;;12.28;46.36
